Time;durP1;ratioP1;P1;durP2;ratioP2;P2;SDS_P1;SDS_P2;PMS_P1;PMS_P2;Temp;Humidity;BMP_temperature;BMP_pressure;BME280_temperature;BME280_humidity;BME280_pressure;Samples;Min_cycle;Max_cycle;Signal;HPM_P1;HPM_P2
2021/08/28 00:01:13;;;;;;;10.80;5.10;;;13.20;99.90;;;14.65;100.00;100730.78;6191268;23;20016;-90
2021/08/28 00:03:39;;;;;;;8.40;4.60;;;13.20;99.90;;;14.60;100.00;100722.72;6164172;23;20008;-91
2021/08/28 00:06:04;;;;;;;8.43;4.43;;;13.10;99.90;;;14.54;100.00;100730.69;6165338;23;20013;-87
2021/08/28 00:08:30;;;;;;;10.40;5.05;;;13.00;99.90;;;14.48;100.00;100725.78;6190449;23;20412;-90
2021/08/28 00:10:58;;;;;;;8.52;5.00;;;13.00;99.90;;;14.43;100.00;100723.28;6190236;23;20005;-89
2021/08/28 00:13:24;;;;;;;7.90;4.60;;;13.00;99.90;;;14.36;100.00;100721.19;6164616;23;20016;-87
2021/08/28 00:15:50;;;;;;;11.95;6.70;;;12.90;99.90;;;14.34;100.00;100714.34;6165494;23;20017;-91
2021/08/28 00:18:16;;;;;;;9.38;5.07;;;12.90;99.90;;;14.36;100.00;100717.56;6192218;23;20088;-88
2021/08/28 00:20:42;;;;;;;8.25;4.63;;;12.90;99.90;;;14.37;100.00;100708.78;6164385;23;20012;-88
2021/08/28 00:23:12;;;;;;;12.30;5.60;;;12.90;99.90;;;14.38;100.00;100701.97;6164593;23;20009;-87
2021/08/28 00:25:42;;;;;;;8.85;6.05;;;12.90;99.90;;;14.40;100.00;100712.81;6165560;23;20031;-87
2021/08/28 00:28:08;;;;;;;11.18;6.25;;;12.90;99.90;;;14.35;100.00;100713.97;6165021;23;20013;-87
2021/08/28 00:30:34;;;;;;;8.05;5.32;;;12.80;99.90;;;14.34;100.00;100706.72;6164328;23;20005;-85
2021/08/28 00:33:14;;;;;;;7.88;5.00;;;12.80;99.90;;;14.34;100.00;100705.91;6164210;23;20475;-87
2021/08/28 00:35:41;;;;;;;9.55;5.03;;;12.90;99.90;;;14.30;100.00;100703.03;6166197;23;20012;-90
2021/08/28 00:38:08;;;;;;;6.97;4.72;;;12.80;99.90;;;14.29;100.00;100703.44;6165836;23;20454;-90
2021/08/28 00:40:38;;;;;;;15.77;6.80;;;12.80;99.90;;;14.27;100.00;100706.59;6166624;23;20398;-88
2021/08/28 00:43:06;;;;;;;11.75;6.97;;;12.70;99.90;;;14.26;100.00;100717.03;6191453;23;20005;-88
2021/08/28 00:45:36;;;;;;;9.93;6.55;;;12.80;99.90;;;14.26;100.00;100717.03;6168273;23;20435;-90
2021/08/28 00:48:13;;;;;;;10.15;5.57;;;12.70;99.90;;;14.25;100.00;100720.22;6170685;23;20009;-91
2021/08/28 00:50:43;;;;;;;8.45;5.80;;;12.70;99.90;;;14.26;100.00;100713.41;6165719;23;20009;-85
2021/08/28 00:53:15;;;;;;;8.98;5.97;;;12.80;99.90;;;14.31;100.00;100715.09;6165031;23;20009;-86
2021/08/28 00:55:47;;;;;;;7.30;4.40;;;12.80;99.90;;;14.32;100.00;100711.88;6164981;23;20013;-85
2021/08/28 00:58:15;;;;;;;9.07;5.07;;;12.80;99.90;;;14.37;100.00;100711.59;6164623;23;20339;-88
2021/08/28 01:01:19;;;;;;;6.70;5.00;;;12.90;99.90;;;14.43;100.00;100723.28;6192395;23;20013;-85
2021/08/28 01:03:53;;;;;;;7.68;5.47;;;12.90;99.90;;;14.50;100.00;100731.81;6154567;23;20091;-88
2021/08/28 01:07:01;;;;;;;10.43;5.80;;;13.00;99.90;;;14.62;100.00;100742.78;6176715;23;20017;-85
2021/08/28 01:09:43;;;;;;;12.65;6.80;;;13.00;99.90;;;14.74;100.00;100731.28;6182717;23;20012;-89
2021/08/28 01:12:23;;;;;;;9.27;6.43;;;13.20;99.90;;;14.81;100.00;100730.56;6165057;23;20021;-89
2021/08/28 01:15:05;;;;;;;11.30;5.65;;;13.20;99.90;;;14.84;100.00;100730.59;6190403;23;20005;-89
2021/08/28 01:17:35;;;;;;;8.82;5.93;;;13.30;99.90;;;14.91;100.00;100727.88;6163943;23;20129;-85
2021/08/28 01:20:38;;;;;;;12.52;6.82;;;13.30;99.90;;;14.99;100.00;100735.22;6163414;23;20059;-86
2021/08/28 01:23:11;;;;;;;13.15;6.75;;;13.40;99.90;;;15.10;100.00;100732.47;6162688;23;20005;-86
2021/08/28 01:25:42;;;;;;;11.48;6.35;;;13.50;99.90;;;15.17;100.00;100730.56;6163578;23;20009;-87
2021/08/28 01:28:12;;;;;;;12.48;8.05;;;13.60;99.90;;;15.22;100.00;100730.19;6164420;23;20036;-88
2021/08/28 01:30:44;;;;;;;14.95;8.88;;;13.60;99.90;;;15.23;100.00;100733.81;6164210;23;20005;-86
2021/08/28 01:33:15;;;;;;;9.82;7.32;;;13.70;99.90;;;15.27;100.00;100740.28;6164046;23;20005;-85
2021/08/28 01:35:46;;;;;;;16.65;7.90;;;13.70;99.90;;;15.31;100.00;100741.94;6163201;23;20013;-88
2021/08/28 01:38:13;;;;;;;18.52;9.80;;;13.70;99.90;;;15.33;100.00;100741.56;6164271;23;20020;-86
2021/08/28 01:40:43;;;;;;;13.30;8.85;;;13.80;99.90;;;15.35;100.00;100741.19;6189115;23;20009;-86
2021/08/28 01:43:10;;;;;;;16.20;10.07;;;13.70;99.90;;;15.38;100.00;100729.94;6163951;23;20147;-86
2021/08/28 01:45:37;;;;;;;12.63;8.57;;;13.80;99.90;;;15.39;100.00;100742.00;6165058;23;20449;-89
2021/08/28 01:48:05;;;;;;;14.65;10.70;;;13.80;99.90;;;15.42;100.00;100744.84;6165763;23;20055;-88
2021/08/28 01:50:32;;;;;;;16.27;10.00;;;13.80;99.90;;;15.42;100.00;100736.41;6165663;23;20100;-86
2021/08/28 01:52:58;;;;;;;15.07;9.32;;;13.80;99.90;;;15.43;100.00;100749.28;6166950;23;20009;-87
2021/08/28 01:55:24;;;;;;;18.45;11.30;;;13.80;99.90;;;15.47;100.00;100749.31;6171660;23;20019;-87
2021/08/28 01:57:50;;;;;;;16.05;10.45;;;13.90;99.90;;;15.46;100.00;100747.69;6165921;23;20012;-89
2021/08/28 02:00:17;;;;;;;11.70;8.88;;;13.80;99.90;;;15.47;100.00;100747.31;6162798;23;20002;-88
2021/08/28 02:02:43;;;;;;;18.63;11.30;;;13.80;99.90;;;15.47;100.00;100743.69;6163284;23;20071;-88
2021/08/28 02:05:12;;;;;;;16.73;10.20;;;13.80;99.90;;;15.46;100.00;100742.06;6163052;23;20005;-88
2021/08/28 02:08:04;;;;;;;13.43;8.88;;;13.90;99.90;;;15.46;100.00;100742.06;6162606;23;20024;-87
2021/08/28 02:10:54;;;;;;;14.20;9.52;;;13.80;99.90;;;15.44;100.00;100747.28;6162089;23;20015;-89
2021/08/28 02:13:41;;;;;;;12.25;9.40;;;13.80;99.90;;;15.47;100.00;100740.88;6164284;23;20104;-88
2021/08/28 02:16:15;;;;;;;16.58;11.68;;;13.80;99.90;;;15.51;100.00;100730.50;6163357;23;20366;-88
2021/08/28 02:19:16;;;;;;;18.85;9.95;;;13.90;99.90;;;15.54;100.00;100738.94;6163469;23;20016;-88
2021/08/28 02:21:50;;;;;;;16.20;9.95;;;13.90;99.90;;;15.54;100.00;100733.31;6162872;23;20036;-89
2021/08/28 02:24:23;;;;;;;16.73;10.73;;;13.90;99.90;;;15.54;100.00;100738.94;6162618;23;20032;-89
2021/08/28 02:27:23;;;;;;;13.25;9.65;;;13.90;99.90;;;15.57;100.00;100726.91;6162787;23;20009;-89
2021/08/28 02:30:13;;;;;;;18.55;11.88;;;13.90;99.90;;;15.58;100.00;100734.16;6163117;23;20059;-90
2021/08/28 02:32:44;;;;;;;17.05;11.43;;;13.90;99.90;;;15.54;100.00;100726.91;6162362;23;20009;-89
2021/08/28 02:35:14;;;;;;;13.35;10.15;;;13.90;99.90;;;15.54;100.00;100724.88;6162451;23;20510;-91
2021/08/28 02:37:45;;;;;;;20.55;12.13;;;13.90;99.90;;;15.55;100.00;100728.50;6162150;23;20027;-86
2021/08/28 02:40:18;;;;;;;17.15;11.52;;;13.90;99.90;;;15.55;100.00;100718.06;6163974;23;20040;-86
2021/08/28 02:42:46;;;;;;;15.55;10.45;;;13.90;99.90;;;15.55;100.00;100722.88;6165211;23;20008;-87
2021/08/28 02:45:22;;;;;;;12.88;9.50;;;13.90;99.90;;;15.52;100.00;100723.66;6190973;23;20426;-87
2021/08/28 02:47:51;;;;;;;13.65;9.57;;;13.90;99.90;;;15.49;100.00;100719.63;6166484;23;20012;-89
2021/08/28 02:50:23;;;;;;;14.27;10.27;;;13.80;99.90;;;15.48;100.00;100715.16;6165644;23;20021;-89
2021/08/28 02:52:51;;;;;;;17.83;12.40;;;13.90;99.90;;;15.48;100.00;100714.34;6165642;23;20012;-87
2021/08/28 02:55:19;;;;;;;21.83;14.27;;;13.80;99.90;;;15.49;100.00;100719.63;6190930;23;20055;-91
2021/08/28 02:57:53;;;;;;;16.98;12.13;;;13.90;99.90;;;15.53;100.00;100720.47;6164162;23;20013;-88
2021/08/28 03:00:20;;;;;;;16.27;10.95;;;13.90;99.90;;;15.56;100.00;100724.50;6189649;23;20013;-90
2021/08/28 03:02:50;;;;;;;15.73;12.02;;;13.90;99.90;;;15.58;100.00;100724.91;6165463;23;20031;-90
2021/08/28 03:05:17;;;;;;;15.90;12.00;;;13.90;99.90;;;15.61;100.00;100724.13;6166054;23;20079;-92
2021/08/28 03:07:44;;;;;;;19.58;13.95;;;13.90;99.90;;;15.63;100.00;100728.19;6190821;23;20395;-89
2021/08/28 03:10:13;;;;;;;30.80;15.38;;;14.00;99.90;;;15.64;100.00;100732.59;6167528;23;20070;-90
2021/08/28 03:12:43;;;;;;;16.23;12.23;;;14.00;99.90;;;15.64;100.00;100729.78;6197587;23;20012;-89
2021/08/28 03:15:10;;;;;;;24.40;14.50;;;14.00;99.90;;;15.67;100.00;100728.19;6195974;23;20402;-85
2021/08/28 03:17:39;;;;;;;19.63;13.18;;;14.00;99.90;;;15.69;100.00;100723.00;6172521;23;20020;-90
2021/08/28 03:20:12;;;;;;;21.25;14.73;;;14.10;99.90;;;15.72;100.00;100717.38;6173686;23;20009;-85
2021/08/28 03:22:43;;;;;;;20.08;13.60;;;14.10;99.90;;;15.72;100.00;100710.94;6166247;23;20115;-90
2021/08/28 03:25:12;;;;;;;24.35;16.33;;;14.10;99.90;;;15.75;100.00;100710.97;6164262;23;20051;-90
2021/08/28 03:27:42;;;;;;;19.77;14.07;;;14.10;99.90;;;15.75;100.00;100704.53;6191334;23;20005;-90
2021/08/28 03:30:13;;;;;;;19.05;13.10;;;14.10;99.90;;;15.79;100.00;100713.81;6190299;23;20043;-88
2021/08/28 03:32:44;;;;;;;24.20;15.80;;;14.10;99.90;;;15.79;100.00;100711.81;6165371;23;20008;-91
2021/08/28 03:35:11;;;;;;;26.30;18.77;;;14.10;99.90;;;15.78;100.00;100707.38;6164654;23;20009;-90
2021/08/28 03:37:40;;;;;;;22.65;16.23;;;14.20;99.90;;;15.81;100.00;100709.41;6164057;23;20009;-90
2021/08/28 03:40:11;;;;;;;26.05;19.20;;;14.20;99.90;;;15.77;100.00;100702.13;6164877;23;20077;-89
2021/08/28 03:42:40;;;;;;;29.42;17.35;;;14.10;99.90;;;15.79;100.00;100711.00;6170224;23;20009;-88
2021/08/28 03:45:11;;;;;;;30.45;18.80;;;14.10;99.90;;;15.77;100.00;100696.47;6175078;23;20366;-88
2021/08/28 03:47:46;;;;;;;22.98;17.38;;;14.10;99.90;;;15.76;100.00;100698.47;6175813;23;20005;-89
2021/08/28 03:50:13;;;;;;;26.00;17.53;;;14.10;99.90;;;15.75;100.00;100702.53;6176257;23;20069;-85
2021/08/28 03:52:40;;;;;;;23.65;16.23;;;14.10;99.90;;;15.77;100.00;100708.56;6172399;23;20247;-87
2021/08/28 03:55:08;;;;;;;26.90;19.00;;;14.20;99.90;;;15.76;100.00;100700.53;6165287;23;20036;-87
2021/08/28 03:57:33;;;;;;;31.60;20.83;;;14.10;99.90;;;15.74;100.00;100700.09;6189564;23;20009;-85
2021/08/28 03:59:59;;;;;;;29.85;20.63;;;14.20;99.90;;;15.74;100.00;100698.09;6191801;23;20071;-87
2021/08/28 04:02:25;;;;;;;28.30;18.55;;;14.10;99.90;;;15.74;100.00;100697.25;6191018;23;20017;-86
2021/08/28 04:04:51;;;;;;;33.28;20.65;;;14.10;99.90;;;15.72;100.00;100683.59;6164830;23;20087;-87
2021/08/28 04:07:18;;;;;;;34.47;20.77;;;14.10;99.90;;;15.72;100.00;100696.88;6194952;23;20099;-89
2021/08/28 04:09:44;;;;;;;24.08;17.75;;;14.10;99.90;;;15.72;100.00;100686.41;6171501;23;20012;-87
2021/08/28 04:12:10;;;;;;;25.67;18.33;;;14.10;99.90;;;15.76;100.00;100686.44;6163053;23;20017;-87
2021/08/28 04:14:36;;;;;;;27.38;19.65;;;14.20;99.90;;;15.75;100.00;100680.00;6163388;23;20114;-89
2021/08/28 04:17:04;;;;;;;26.27;18.95;;;14.20;99.90;;;15.77;100.00;100679.59;6162965;23;20032;-88
2021/08/28 04:19:30;;;;;;;34.45;22.55;;;14.20;99.90;;;15.73;100.00;100675.97;6166700;23;20001;-85
2021/08/28 04:21:56;;;;;;;28.20;19.10;;;14.20;99.90;;;15.76;100.00;100675.19;6190130;23;20020;-89
2021/08/28 04:24:22;;;;;;;33.70;22.08;;;14.20;99.90;;;15.77;100.00;100674.75;6163780;23;20336;-88
2021/08/28 04:26:47;;;;;;;28.27;20.38;;;14.10;99.90;;;15.78;100.00;100673.56;6164005;23;20013;-89
2021/08/28 04:29:13;;;;;;;32.53;21.42;;;14.20;99.90;;;15.78;100.00;100667.13;6163919;23;20005;-88
2021/08/28 04:31:39;;;;;;;30.38;20.83;;;14.20;99.90;;;15.78;100.00;100675.56;6165677;23;20045;-86
2021/08/28 04:34:05;;;;;;;32.85;21.27;;;14.20;99.90;;;15.77;100.00;100669.13;6165309;23;20009;-87
2021/08/28 04:36:31;;;;;;;36.60;21.90;;;14.10;99.90;;;15.78;100.00;100672.75;6173659;23;19999;-85
2021/08/28 04:38:57;;;;;;;32.22;21.05;;;14.20;99.90;;;15.81;100.00;100675.59;6212626;23;20001;-83
2021/08/28 04:41:23;;;;;;;29.23;20.80;;;14.20;99.90;;;15.80;100.00;100675.97;6168086;23;20092;-87
2021/08/28 04:43:49;;;;;;;33.72;21.83;;;14.20;99.90;;;15.81;100.00;100666.34;6163300;23;20012;-86
2021/08/28 04:46:15;;;;;;;31.75;19.63;;;14.20;99.90;;;15.83;100.00;100672.38;6164792;23;20032;-88
2021/08/28 04:48:40;;;;;;;33.42;21.63;;;14.20;99.90;;;15.83;100.00;100672.38;6190909;23;20005;-88
2021/08/28 04:51:06;;;;;;;31.52;20.75;;;14.20;99.90;;;15.83;100.00;100666.75;6190609;23;20001;-88
2021/08/28 04:53:32;;;;;;;34.20;21.08;;;14.20;99.90;;;15.85;100.00;100672.00;6165717;23;20009;-88
2021/08/28 04:56:01;;;;;;;30.15;19.25;;;14.20;99.90;;;15.85;100.00;100680.44;6164755;23;20005;-87
2021/08/28 04:58:27;;;;;;;27.55;18.65;;;14.20;99.90;;;15.86;100.00;100679.25;6164101;23;20009;-86
2021/08/28 05:00:53;;;;;;;28.13;17.75;;;14.20;99.90;;;15.87;100.00;100676.03;6165735;23;20008;-86
2021/08/28 05:03:18;;;;;;;32.78;20.50;;;14.20;99.90;;;15.87;100.00;100672.41;6191506;23;20029;-86
2021/08/28 05:05:44;;;;;;;30.30;20.13;;;14.20;99.90;;;15.89;100.00;100668.00;6164277;23;20088;-88
2021/08/28 05:08:12;;;;;;;24.70;17.90;;;14.20;99.90;;;15.92;100.00;100672.03;6192543;23;20013;-88
2021/08/28 05:10:38;;;;;;;36.50;21.58;;;14.30;99.90;;;15.94;100.00;100672.44;6167773;23;20016;-87
2021/08/28 05:13:04;;;;;;;28.00;18.88;;;14.30;99.90;;;15.92;100.00;100675.69;6164216;23;20013;-86
2021/08/28 05:15:30;;;;;;;28.20;18.40;;;14.30;99.90;;;15.92;100.00;100678.50;6164082;23;20449;-86
2021/08/28 05:17:55;;;;;;;27.17;17.08;;;14.30;99.90;;;15.90;100.00;100678.06;6163490;23;20013;-85
2021/08/28 05:20:21;;;;;;;31.80;20.23;;;14.30;99.90;;;15.88;100.00;100679.66;6188052;23;20009;-87
2021/08/28 05:22:47;;;;;;;26.83;18.00;;;14.30;99.90;;;15.89;100.00;100675.66;6189278;23;20044;-87
2021/08/28 05:25:13;;;;;;;31.40;19.98;;;14.20;99.90;;;15.92;100.00;100684.13;6162978;23;20005;-86
2021/08/28 05:27:39;;;;;;;29.38;19.73;;;14.30;99.90;;;15.92;100.00;100680.50;6163470;23;20491;-87
2021/08/28 05:30:06;;;;;;;26.55;17.90;;;14.30;99.90;;;15.90;100.00;100682.88;6163239;23;20320;-88
2021/08/28 05:32:36;;;;;;;27.55;18.17;;;14.30;99.90;;;15.90;100.00;100686.50;6188505;23;20020;-89
2021/08/28 05:35:04;;;;;;;30.45;19.75;;;14.30;99.90;;;15.89;100.00;100679.28;6163650;23;20037;-87
2021/08/28 05:37:29;;;;;;;20.08;15.18;;;14.30;99.90;;;15.90;100.00;100680.88;6164043;23;20036;-89
2021/08/28 05:39:56;;;;;;;23.17;15.80;;;14.30;99.90;;;15.90;100.00;100680.88;6164299;23;20009;-87
2021/08/28 05:42:22;;;;;;;20.02;14.40;;;14.30;99.90;;;15.93;100.00;100679.28;6188474;23;20083;-87
2021/08/28 05:44:48;;;;;;;18.52;13.18;;;14.30;99.90;;;15.91;100.00;100682.50;6162006;23;20005;-86
2021/08/28 05:47:14;;;;;;;20.85;14.45;;;14.30;99.90;;;15.92;100.00;100688.94;6186315;23;20005;-86
2021/08/28 05:49:40;;;;;;;18.40;13.43;;;14.20;99.90;;;15.92;100.00;100686.94;6187980;23;20374;-89
2021/08/28 05:52:08;;;;;;;17.40;12.80;;;14.30;99.90;;;15.94;100.00;100690.16;6188078;23;20375;-87
2021/08/28 05:54:34;;;;;;;17.90;12.35;;;14.20;99.90;;;15.92;100.00;100689.75;6162006;23;20092;-85
2021/08/28 05:56:59;;;;;;;17.65;12.00;;;14.30;99.90;;;15.92;100.00;100686.13;6161966;23;20064;-84
2021/08/28 05:59:25;;;;;;;14.10;9.88;;;14.30;99.90;;;15.91;100.00;100684.50;6187290;23;20008;-85
2021/08/28 06:01:52;;;;;;;13.48;10.57;;;14.30;99.90;;;15.93;100.00;100688.53;6163336;23;20016;-87
2021/08/28 06:04:19;;;;;;;12.13;9.10;;;14.20;99.90;;;15.85;100.00;100686.91;6188231;23;20001;-88
2021/08/28 06:06:44;;;;;;;13.73;9.45;;;14.30;99.90;;;15.88;100.00;100688.13;6162260;23;20012;-87
2021/08/28 06:09:10;;;;;;;12.90;8.93;;;14.30;99.90;;;15.91;100.00;100684.50;6162272;23;20005;-88
2021/08/28 06:11:36;;;;;;;11.27;8.63;;;14.30;99.90;;;15.93;100.00;100682.91;6164938;23;20082;-88
2021/08/28 06:14:05;;;;;;;12.55;8.07;;;14.30;99.90;;;15.95;100.00;100688.16;6188906;23;20016;-88
2021/08/28 06:16:32;;;;;;;11.68;7.72;;;14.30;99.90;;;15.96;100.00;100682.13;6162221;23;20447;-85
2021/08/28 07:37:07;;;;;;;14.25;8.95;;;15.20;99.90;;;16.75;100.00;100689.75;6177410;23;20040;-87
2021/08/28 07:39:34;;;;;;;14.45;8.68;;;15.20;99.90;;;16.77;100.00;100696.59;6155774;23;20009;-88
2021/08/28 07:42:01;;;;;;;15.23;9.07;;;15.20;99.90;;;16.77;100.00;100687.31;6155099;23;20005;-87
2021/08/28 07:44:27;;;;;;;12.18;8.77;;;15.20;99.90;;;16.70;100.00;100690.91;6129398;23;20063;-88
2021/08/28 07:46:55;;;;;;;14.60;9.32;;;15.20;99.90;;;16.70;100.00;100693.75;6129373;23;20016;-87
2021/08/28 07:49:21;;;;;;;12.57;8.88;;;15.20;99.90;;;16.71;100.00;100697.38;6130537;23;20371;-87
2021/08/28 07:51:47;;;;;;;11.18;7.50;;;15.20;99.90;;;16.66;100.00;100686.50;6129614;23;20133;-87
2021/08/28 07:54:14;;;;;;;8.88;7.40;;;15.10;99.90;;;16.67;100.00;100688.09;6129302;23;20059;-89
2021/08/28 07:56:41;;;;;;;11.43;7.30;;;15.10;99.90;;;16.66;100.00;100706.22;6129631;23;20013;-88
2021/08/28 07:59:07;;;;;;;11.18;6.80;;;15.00;99.90;;;16.66;100.00;100709.84;6154966;23;20064;-87
2021/08/28 08:01:33;;;;;;;9.90;7.00;;;15.00;99.90;;;16.80;100.00;100709.88;6153812;23;20024;-87
2021/08/28 08:04:02;;;;;;;13.60;8.75;;;15.20;99.90;;;16.91;100.00;100703.47;6129726;23;20005;-87
2021/08/28 08:06:28;;;;;;;10.93;8.50;;;15.30;99.90;;;16.95;100.00;100707.94;6129750;23;20009;-88
2021/08/28 08:08:54;;;;;;;13.25;9.68;;;15.30;99.90;;;16.89;100.00;100720.78;6129225;23;20008;-87
2021/08/28 08:11:21;;;;;;;13.50;10.10;;;15.30;99.90;;;16.82;100.00;100706.69;6129091;23;20047;-88
2021/08/28 08:13:47;;;;;;;13.70;10.00;;;15.30;99.90;;;16.96;100.00;100709.53;6129293;23;20039;-86
2021/08/28 08:16:16;;;;;;;13.40;9.23;;;15.30;99.90;;;17.05;100.00;100714.81;6153218;23;20009;-86
2021/08/28 08:18:42;;;;;;;11.30;8.18;;;15.40;99.90;;;17.30;100.00;100707.97;6130710;23;20008;-87
2021/08/28 08:21:11;;;;;;;11.10;8.32;;;15.50;99.90;;;17.57;100.00;100716.06;6156102;23;20096;-88
2021/08/28 08:23:37;;;;;;;13.55;9.85;;;15.90;99.90;;;18.08;100.00;100727.69;6159621;23;20012;-80
2021/08/28 08:26:03;;;;;;;12.90;10.27;;;16.20;99.90;;;18.46;100.00;100725.16;6175416;23;20381;-87
2021/08/28 08:28:29;;;;;;;10.73;7.95;;;16.50;99.90;;;18.47;100.00;100730.41;6132943;23;20013;-86
2021/08/28 08:31:17;;;;;;;14.80;8.68;;;16.60;99.90;;;18.34;100.00;100720.75;6130554;23;20395;-86
2021/08/28 08:33:45;;;;;;;9.40;7.28;;;16.50;99.90;;;18.21;100.00;100728.88;6155623;23;20315;-89
2021/08/28 08:36:11;;;;;;;12.07;7.95;;;16.40;99.90;;;18.05;100.00;100722.03;6155354;23;20443;-86
2021/08/28 08:38:40;;;;;;;12.18;7.45;;;16.30;99.90;;;18.09;100.00;100729.31;6154901;23;20014;-85
2021/08/28 08:41:06;;;;;;;13.80;7.38;;;16.30;99.90;;;17.99;100.00;100735.78;6131119;23;20013;-87
2021/08/28 08:43:34;;;;;;;10.68;7.45;;;16.30;99.90;;;18.03;100.00;100739.44;6130932;23;19998;-86
2021/08/28 08:46:10;;;;;;;11.13;7.65;;;16.30;99.90;;;18.14;100.00;100733.75;6130497;23;20021;-87
2021/08/28 08:48:57;;;;;;;11.13;7.43;;;16.30;99.90;;;18.13;100.00;100732.13;6131466;23;20061;-86
2021/08/28 08:51:24;;;;;;;12.13;8.80;;;16.40;99.90;;;18.20;100.00;100732.94;6154885;23;20060;-88
2021/08/28 08:53:53;;;;;;;11.15;7.28;;;16.40;99.90;;;18.19;100.00;100724.84;6129760;23;20317;-88
2021/08/28 08:56:24;;;;;;;14.95;8.35;;;16.50;99.90;;;18.49;100.00;100730.81;6156754;23;20021;-88
2021/08/28 08:58:54;;;;;;;11.75;7.32;;;16.60;99.90;;;18.52;100.00;100726.38;6130594;23;20113;-86
2021/08/28 09:01:21;;;;;;;9.27;7.35;;;16.70;99.90;;;18.60;97.66;100716.63;6154771;23;20443;-87
2021/08/28 09:03:48;;;;;;;12.43;7.50;;;16.90;99.90;;;18.67;97.30;100728.75;6130533;23;20010;-85
2021/08/28 09:06:17;;;;;;;11.70;7.25;;;16.90;99.90;;;18.74;96.96;100725.88;6130719;23;20009;-89
2021/08/28 09:08:49;;;;;;;8.82;6.90;;;17.00;99.90;;;18.73;96.65;100734.78;6130108;23;20100;-89
2021/08/28 09:11:23;;;;;;;10.43;7.57;;;17.00;99.90;;;18.84;97.41;100736.34;6131316;23;20016;-87
2021/08/28 09:13:51;;;;;;;12.02;6.32;;;17.00;99.90;;;18.99;97.56;100731.41;6131935;23;20005;-88
2021/08/28 09:16:58;;;;;;;10.77;7.63;;;17.20;99.90;;;18.90;95.23;100734.69;6130909;23;20056;-87
2021/08/28 09:19:46;;;;;;;9.43;6.90;;;17.20;99.90;;;18.87;96.37;100737.53;6122128;23;20316;-90
2021/08/28 09:23:04;;;;;;;12.30;7.30;;;17.10;99.90;;;18.79;97.28;100739.59;6132469;23;20336;-89
2021/08/28 09:25:33;;;;;;;12.32;6.80;;;17.00;99.90;;;18.68;97.06;100755.81;6155864;23;20499;-86
2021/08/28 09:28:00;;;;;;;13.10;7.95;;;17.00;99.90;;;18.48;97.16;100751.00;6154751;23;20008;-87
2021/08/28 09:30:31;;;;;;;10.85;7.03;;;16.90;99.90;;;18.44;98.04;100751.03;6131502;23;20350;-87
2021/08/28 09:33:03;;;;;;;10.30;7.75;;;16.80;99.90;;;18.32;96.51;100746.63;6155202;23;20005;-87
2021/08/28 09:35:34;;;;;;;13.82;8.13;;;16.70;99.90;;;18.28;96.72;100754.31;6156397;23;20005;-87
2021/08/28 09:38:07;;;;;;;11.43;7.70;;;16.60;99.90;;;18.16;96.15;100746.25;6158249;23;20289;-88
2021/08/28 09:40:43;;;;;;;10.90;7.95;;;16.50;99.90;;;18.09;96.06;100751.94;6131070;23;20027;-89
2021/08/28 09:43:19;;;;;;;11.15;8.18;;;16.50;99.90;;;18.11;96.34;100752.31;6156093;23;20347;-89
2021/08/28 09:45:53;;;;;;;11.95;8.00;;;16.50;99.90;;;18.21;95.78;100750.69;6132531;23;20025;-88
2021/08/28 09:48:27;;;;;;;13.77;8.18;;;16.50;99.90;;;18.31;95.38;100750.66;6131508;23;20008;-88
2021/08/28 09:50:54;;;;;;;12.38;8.85;;;16.60;99.90;;;18.60;95.93;100754.22;6131373;23;20081;-87
2021/08/28 09:53:26;;;;;;;12.35;8.15;;;16.80;99.90;;;18.85;93.17;100762.59;6130114;23;20006;-88
2021/08/28 09:56:01;;;;;;;12.70;7.88;;;17.10;99.90;;;19.13;91.09;100759.63;6157065;23;20005;-89
2021/08/28 09:58:32;;;;;;;11.30;7.25;;;17.30;99.90;;;19.41;89.76;100767.97;6130502;23;20009;-87
2021/08/28 10:01:35;;;;;;;10.32;6.68;;;17.50;99.90;;;19.69;89.26;100764.09;6131348;23;20005;-87
2021/08/28 10:04:08;;;;;;;12.50;7.75;;;17.70;99.90;;;19.91;88.43;100764.72;6157013;23;20068;-88
2021/08/28 10:06:55;;;;;;;11.18;6.45;;;18.00;99.90;;;20.44;85.92;100762.19;6156675;23;20088;-88
2021/08/28 10:09:21;;;;;;;8.55;6.50;;;18.40;99.90;;;20.82;83.13;100764.94;6132237;23;20025;-88
2021/08/28 10:11:50;;;;;;;8.55;5.97;;;18.70;99.90;;;20.99;82.36;100770.41;6131636;23;20010;-88
2021/08/28 10:14:20;;;;;;;7.10;5.93;;;18.90;99.90;;;21.01;81.53;100770.78;6131822;23;20010;-88
2021/08/28 10:16:48;;;;;;;7.10;5.65;;;18.90;99.90;;;20.83;81.76;100764.53;6132126;23;20029;-91
2021/08/28 10:19:18;;;;;;;9.20;6.43;;;18.90;99.90;;;20.83;82.31;100758.06;6158166;23;20092;-88
2021/08/28 10:21:49;;;;;;;7.68;6.13;;;18.90;99.90;;;20.75;81.96;100776.41;6133380;23;20211;-88
2021/08/28 10:24:28;;;;;;;9.32;7.15;;;18.70;99.90;;;20.62;82.92;100769.66;6132910;23;20005;-88
2021/08/28 10:26:55;;;;;;;10.02;7.00;;;18.70;99.90;;;20.29;83.79;100768.44;6133527;23;20005;-86
2021/08/28 10:29:23;;;;;;;7.28;6.47;;;18.40;99.90;;;19.96;85.85;100767.13;6131237;23;20016;-88
2021/08/28 10:31:50;;;;;;;8.55;7.05;;;18.10;99.90;;;19.63;87.23;100754.44;6131971;23;20005;-87
2021/08/28 10:34:17;;;;;;;11.32;6.88;;;17.90;99.90;;;19.42;88.42;100757.44;6130725;23;20013;-87
2021/08/28 10:36:44;;;;;;;11.93;7.03;;;17.60;99.90;;;19.29;88.81;100771.25;6166262;23;20006;-84
2021/08/28 10:39:18;;;;;;;10.55;7.50;;;17.60;99.90;;;19.20;90.74;100779.38;6155301;23;20041;-86
2021/08/28 10:41:47;;;;;;;9.85;7.40;;;17.40;99.90;;;19.11;91.46;100770.53;6135256;23;20010;-87
2021/08/28 10:44:14;;;;;;;11.02;7.40;;;17.40;99.90;;;19.01;90.35;100767.78;6135679;23;20059;-86
2021/08/28 10:52:22;;;;;;;9.68;6.25;;;17.60;99.90;;;20.12;84.94;100772.22;6157939;23;20010;-87
2021/08/28 10:56:07;;;;;;;9.27;6.35;;;18.10;99.90;;;20.32;84.21;100782.59;6131857;23;20033;-86
2021/08/28 11:07:42;;;;;;;9.13;6.20;;;18.20;99.90;;;20.24;84.72;100775.34;5817121;24;20065;-84
2021/08/28 11:11:39;;;;;;;6.95;5.65;;;18.30;99.90;;;20.58;83.16;100760.41;5853003;24;20017;-87
2021/08/28 11:14:44;;;;;;;8.73;6.07;;;18.50;99.90;;;20.68;82.00;100768.78;5895583;24;20023;-85
2021/08/28 19:22:04;;;;;;;7.40;3.28;;;15.60;99.90;;;17.19;100.00;100927.31;6199711;23;20009;-88
2021/08/28 19:24:30;;;;;;;5.90;3.38;;;15.60;99.90;;;17.16;100.00;100919.63;6180769;23;20020;-90
2021/08/28 19:26:56;;;;;;;6.50;3.60;;;15.60;99.90;;;17.10;100.00;100920.41;6170115;23;20143;-92
2021/08/28 19:29:24;;;;;;;4.70;2.90;;;15.60;99.90;;;17.09;100.00;100930.06;6160271;23;20006;-89
2021/08/28 19:31:50;;;;;;;6.65;3.15;;;15.60;99.90;;;17.10;100.00;100924.03;6133951;23;20016;-88
2021/08/28 19:34:16;;;;;;;2.63;2.30;;;15.50;99.90;;;17.06;100.00;100928.84;6133982;23;20009;-91
2021/08/28 19:36:43;;;;;;;3.22;2.47;;;15.50;99.90;;;17.01;100.00;100928.44;6161555;23;20072;-91
2021/08/28 19:39:10;;;;;;;3.90;2.50;;;15.50;99.90;;;17.03;100.00;100932.47;6164242;23;20009;-91
2021/08/28 19:41:36;;;;;;;4.15;2.10;;;15.50;99.90;;;17.02;100.00;100930.84;6159355;23;20060;-89
2021/08/28 19:44:02;;;;;;;3.83;2.15;;;15.50;99.90;;;17.05;100.00;100934.91;6159628;23;20005;-90
2021/08/28 19:46:28;;;;;;;4.10;2.10;;;15.50;99.90;;;17.03;100.00;100943.75;6135460;23;20020;-88
2021/08/28 19:48:53;;;;;;;4.28;2.10;;;15.40;99.90;;;16.95;100.00;100947.75;6135412;23;20017;-92
2021/08/28 19:51:19;;;;;;;4.43;2.17;;;15.40;99.90;;;16.98;100.00;100946.97;6139917;23;20202;-91
2021/08/28 19:53:45;;;;;;;5.10;2.45;;;15.40;99.90;;;16.95;100.00;100938.47;6137483;23;20009;-92